Time;durP1;ratioP1;P1;durP2;ratioP2;P2;SDS_P1;SDS_P2;PMS_P1;PMS_P2;Temp;Humidity;BMP_temperature;BMP_pressure;BME280_temperature;BME280_humidity;BME280_pressure;Samples;Min_cycle;Max_cycle;Signal;HPM_P1;HPM_P2
2023/08/03 00:00:30;;;;;;;6.70;3.15;;;15.10;99.90;;;;;;6258534;22;20018;-77
2023/08/03 00:02:56;;;;;;;8.07;2.80;;;15.10;99.90;;;;;;6259634;22;20038;-76
2023/08/03 00:05:22;;;;;;;12.13;2.83;;;15.10;99.90;;;;;;6259482;22;20012;-78
2023/08/03 00:07:48;;;;;;;8.10;2.67;;;15.10;99.90;;;;;;6258163;22;20474;-78
2023/08/03 00:10:15;;;;;;;9.75;2.95;;;15.20;99.90;;;;;;6257211;22;20016;-78
2023/08/03 00:12:41;;;;;;;7.45;3.13;;;15.30;99.90;;;;;;6256642;22;20007;-76
2023/08/03 00:15:08;;;;;;;7.93;3.28;;;15.30;99.90;;;;;;6231456;22;20019;-78
2023/08/03 00:17:33;;;;;;;10.15;2.75;;;15.40;99.90;;;;;;6259440;22;20011;-78
2023/08/03 00:20:00;;;;;;;4.60;2.60;;;15.40;99.90;;;;;;6258806;22;20008;-78
2023/08/03 00:22:26;;;;;;;10.15;2.90;;;15.50;99.90;;;;;;6259113;22;20010;-78
2023/08/03 00:24:52;;;;;;;8.05;3.00;;;15.50;99.90;;;;;;6226847;22;20000;-76
2023/08/03 00:27:17;;;;;;;9.38;2.65;;;15.50;99.90;;;;;;6255883;22;20020;-76
2023/08/03 00:29:43;;;;;;;5.57;2.65;;;15.50;99.90;;;;;;6227840;22;20011;-78
2023/08/03 00:32:09;;;;;;;9.25;2.95;;;15.60;99.90;;;;;;6230986;22;20137;-78
2023/08/03 00:34:34;;;;;;;5.38;2.67;;;15.70;99.90;;;;;;6231973;22;20027;-78
2023/08/03 00:37:00;;;;;;;10.20;3.28;;;15.60;99.90;;;;;;6229621;22;20011;-78
2023/08/03 00:39:25;;;;;;;7.80;2.97;;;15.70;99.90;;;;;;6230061;22;20014;-78
2023/08/03 00:41:52;;;;;;;5.50;2.97;;;15.70;99.90;;;;;;6231246;22;19999;-78
2023/08/03 00:44:18;;;;;;;6.05;2.83;;;15.70;99.90;;;;;;6233584;22;20011;-76
2023/08/03 00:46:43;;;;;;;6.15;3.28;;;15.70;99.90;;;;;;6228365;22;20007;-76
2023/08/03 00:49:09;;;;;;;5.05;3.03;;;15.80;99.90;;;;;;6228404;22;20142;-76
2023/08/03 00:51:35;;;;;;;7.22;3.08;;;15.80;99.90;;;;;;6233053;22;20408;-76
2023/08/03 00:54:00;;;;;;;7.90;3.05;;;15.80;99.90;;;;;;6231972;22;20421;-78
2023/08/03 00:56:26;;;;;;;8.68;2.78;;;15.80;99.90;;;;;;6228466;22;20016;-75
2023/08/03 00:58:52;;;;;;;11.10;3.30;;;15.80;99.90;;;;;;6260724;22;20113;-75
2023/08/03 01:01:17;;;;;;;5.80;2.72;;;15.80;99.90;;;;;;6230695;22;20794;-76
2023/08/03 01:03:44;;;;;;;9.27;3.15;;;15.80;99.90;;;;;;6257810;22;20012;-76
2023/08/03 01:06:10;;;;;;;10.00;3.05;;;15.80;99.90;;;;;;6230999;22;19999;-76
2023/08/03 01:08:35;;;;;;;8.85;3.00;;;15.80;99.90;;;;;;6261357;22;20037;-78
2023/08/03 01:11:01;;;;;;;5.43;3.05;;;15.80;99.90;;;;;;6235054;22;20855;-78
2023/08/03 01:13:27;;;;;;;9.57;3.15;;;15.80;99.90;;;;;;6261934;22;20028;-78
2023/08/03 01:15:52;;;;;;;6.82;3.28;;;15.80;99.90;;;;;;6234276;22;20080;-78
2023/08/03 01:18:18;;;;;;;8.65;2.88;;;15.80;99.90;;;;;;6236593;22;20018;-78
2023/08/03 01:20:44;;;;;;;9.82;2.70;;;15.80;99.90;;;;;;6235940;22;20015;-76
2023/08/03 01:23:10;;;;;;;10.45;2.60;;;15.80;99.90;;;;;;6234978;22;20030;-79
2023/08/03 01:25:36;;;;;;;6.80;2.92;;;15.80;99.90;;;;;;6259983;22;20030;-77
2023/08/03 01:28:05;;;;;;;7.63;2.65;;;15.90;99.90;;;;;;6261139;22;20099;-77
2023/08/03 01:30:31;;;;;;;8.50;2.70;;;15.80;99.90;;;;;;6234630;22;20055;-76
2023/08/03 01:32:58;;;;;;;7.10;2.50;;;15.80;99.90;;;;;;6232876;22;20016;-78
2023/08/03 01:35:24;;;;;;;6.53;2.53;;;15.80;99.90;;;;;;6261229;22;20018;-76
2023/08/03 01:37:51;;;;;;;6.18;2.88;;;15.80;99.90;;;;;;6264826;22;20003;-78
2023/08/03 01:40:17;;;;;;;6.43;2.45;;;15.80;99.90;;;;;;6262285;22;20016;-76
2023/08/03 01:42:43;;;;;;;6.47;2.70;;;15.90;99.90;;;;;;6262404;22;20013;-78
2023/08/03 01:45:09;;;;;;;5.88;2.22;;;15.80;99.90;;;;;;6236179;22;20465;-78
2023/08/03 01:47:35;;;;;;;9.35;2.30;;;15.90;99.90;;;;;;6262619;22;20010;-78
2023/08/03 01:50:02;;;;;;;9.85;2.88;;;15.90;99.90;;;;;;6230236;22;20016;-79
2023/08/03 01:52:27;;;;;;;5.10;2.20;;;15.90;99.90;;;;;;6229288;22;20039;-78
2023/08/03 01:54:53;;;;;;;5.28;2.38;;;15.90;99.90;;;;;;6231865;22;20007;-78
2023/08/03 01:57:18;;;;;;;5.90;2.55;;;15.90;99.90;;;;;;6257077;22;20021;-78
2023/08/03 01:59:45;;;;;;;7.35;2.35;;;15.90;99.90;;;;;;6256418;22;20004;-78
2023/08/03 02:02:11;;;;;;;5.47;2.08;;;15.90;99.90;;;;;;6228141;22;20004;-78
2023/08/03 02:04:37;;;;;;;4.38;2.20;;;15.90;99.90;;;;;;6232476;22;20838;-78
2023/08/03 02:07:29;;;;;;;3.72;2.00;;;15.90;99.90;;;;;;6229926;22;20000;-77
2023/08/03 02:09:55;;;;;;;7.13;2.00;;;15.90;99.90;;;;;;6228452;22;20087;-78
2023/08/03 02:12:20;;;;;;;4.95;2.20;;;16.00;99.90;;;;;;6257276;22;20105;-77
2023/08/03 02:14:46;;;;;;;6.38;2.10;;;16.00;99.90;;;;;;6229999;22;20153;-77
2023/08/03 02:17:11;;;;;;;5.20;1.80;;;15.90;99.90;;;;;;6232044;22;20015;-78
2023/08/03 02:19:37;;;;;;;7.75;2.00;;;15.90;99.90;;;;;;6232227;22;20082;-78
2023/08/03 02:22:03;;;;;;;6.55;1.70;;;15.90;99.90;;;;;;6261194;22;20677;-78
2023/08/03 02:24:28;;;;;;;3.78;1.40;;;15.90;99.90;;;;;;6258102;22;20576;-77
2023/08/03 02:26:54;;;;;;;4.53;1.52;;;15.90;99.90;;;;;;6260490;22;20380;-76
2023/08/03 02:29:19;;;;;;;1.92;1.58;;;15.90;99.90;;;;;;6228840;22;20073;-76
2023/08/03 02:31:45;;;;;;;2.85;1.20;;;15.80;99.90;;;;;;6259505;22;20015;-77
2023/08/03 02:34:11;;;;;;;1.60;1.15;;;15.80;99.90;;;;;;6259651;22;20462;-76
2023/08/03 02:36:36;;;;;;;2.28;1.10;;;15.90;99.90;;;;;;6232668;22;20010;-76
2023/08/03 02:39:02;;;;;;;2.15;1.15;;;15.90;99.90;;;;;;6260991;22;20008;-77
2023/08/03 02:41:27;;;;;;;3.35;1.00;;;15.90;99.90;;;;;;6260628;22;20042;-77
2023/08/03 02:43:53;;;;;;;4.95;0.95;;;15.90;99.90;;;;;;6259770;22;20003;-76
2023/08/03 02:46:19;;;;;;;1.70;1.08;;;15.90;99.90;;;;;;6256394;22;20031;-76
2023/08/03 02:48:44;;;;;;;1.10;0.95;;;15.90;99.90;;;;;;6228452;22;20081;-77
2023/08/03 02:51:10;;;;;;;2.03;1.00;;;15.80;99.90;;;;;;6256014;22;20124;-77
2023/08/03 02:53:36;;;;;;;2.25;0.90;;;15.80;99.90;;;;;;6259046;22;20439;-76
2023/08/03 02:56:01;;;;;;;1.65;0.73;;;15.80;99.90;;;;;;6261148;22;20004;-77
2023/08/03 02:58:27;;;;;;;2.45;0.90;;;15.80;99.90;;;;;;6260351;22;20058;-77
2023/08/03 03:00:52;;;;;;;2.85;0.70;;;15.80;99.90;;;;;;6260643;22;19999;-77
2023/08/03 03:03:18;;;;;;;2.67;0.90;;;15.80;99.90;;;;;;6262528;22;20452;-76
2023/08/03 03:05:44;;;;;;;1.00;0.90;;;15.80;99.90;;;;;;6260498;22;20008;-77
2023/08/03 03:08:09;;;;;;;1.70;0.80;;;15.80;99.90;;;;;;6236094;22;20011;-77
2023/08/03 03:10:35;;;;;;;4.32;0.95;;;15.80;99.90;;;;;;6265110;22;19999;-77
2023/08/03 03:13:00;;;;;;;1.27;0.93;;;15.80;99.90;;;;;;6264508;22;20081;-76
2023/08/03 03:15:26;;;;;;;3.30;0.80;;;15.80;99.90;;;;;;6264744;22;20027;-77
2023/08/03 03:17:51;;;;;;;1.00;0.70;;;15.80;99.90;;;;;;6260817;22;20284;-77
2023/08/03 03:20:17;;;;;;;3.03;0.85;;;15.80;99.90;;;;;;6261327;22;20485;-77
2023/08/03 03:22:43;;;;;;;5.72;1.00;;;15.80;99.90;;;;;;6261038;22;20011;-76
2023/08/03 03:25:08;;;;;;;3.72;0.93;;;15.80;99.90;;;;;;6261531;22;20021;-77
2023/08/03 03:27:34;;;;;;;2.95;0.80;;;15.70;99.90;;;;;;6259237;22;20038;-76
2023/08/03 03:30:00;;;;;;;2.90;0.90;;;15.70;99.90;;;;;;6260674;22;20767;-77
2023/08/03 03:32:25;;;;;;;2.50;0.93;;;15.70;99.90;;;;;;6255504;22;20530;-76
2023/08/03 03:34:51;;;;;;;2.58;1.10;;;15.60;99.90;;;;;;6258332;22;20038;-77
2023/08/03 03:37:16;;;;;;;1.67;1.08;;;15.60;99.90;;;;;;6257974;22;20014;-76
2023/08/03 03:39:42;;;;;;;0.98;0.88;;;15.50;99.90;;;;;;6232640;22;20011;-76
2023/08/03 03:42:08;;;;;;;2.58;1.10;;;15.50;99.90;;;;;;6259972;22;20744;-76
2023/08/03 03:44:34;;;;;;;2.20;1.10;;;15.50;99.90;;;;;;6261804;22;20304;-76
2023/08/03 03:46:59;;;;;;;4.72;1.30;;;15.50;99.90;;;;;;6258165;22;20029;-76
2023/08/03 03:49:25;;;;;;;2.35;1.30;;;15.40;99.90;;;;;;6259263;22;20011;-77
2023/08/03 03:51:50;;;;;;;3.75;1.38;;;15.50;99.90;;;;;;6258502;22;20018;-77
2023/08/03 03:54:16;;;;;;;1.90;1.30;;;15.50;99.90;;;;;;6257054;22;20447;-76
2023/08/03 03:56:41;;;;;;;2.08;1.60;;;15.50;99.90;;;;;;6261128;22;20029;-77
2023/08/03 03:59:07;;;;;;;3.40;1.20;;;15.40;99.90;;;;;;6260488;22;20303;-76
2023/08/03 04:01:33;;;;;;;3.15;1.20;;;15.50;99.90;;;;;;6261068;22;20099;-76
2023/08/03 04:03:58;;;;;;;3.88;1.70;;;15.50;99.90;;;;;;6226732;22;20586;-77
2023/08/03 04:06:24;;;;;;;6.55;1.42;;;15.50;99.90;;;;;;6222459;23;20000;-78
2023/08/03 04:08:49;;;;;;;2.22;1.30;;;15.50;99.90;;;;;;6199224;23;20050;-77
2023/08/03 04:11:15;;;;;;;5.40;1.70;;;15.50;99.90;;;;;;6197885;23;20371;-77
2023/08/03 04:13:40;;;;;;;2.88;1.33;;;15.40;99.90;;;;;;6199373;23;20054;-76
2023/08/03 04:16:06;;;;;;;4.70;1.45;;;15.50;99.90;;;;;;6199034;23;20004;-77
2023/08/03 04:18:31;;;;;;;3.30;1.50;;;15.40;99.90;;;;;;6197547;23;20060;-77
2023/08/03 04:20:57;;;;;;;4.90;1.67;;;15.40;99.90;;;;;;6197884;23;20035;-77
2023/08/03 04:23:23;;;;;;;3.83;1.75;;;15.40;99.90;;;;;;6200245;23;20012;-77
2023/08/03 04:25:48;;;;;;;3.50;1.63;;;15.40;99.90;;;;;;6200226;23;20087;-78
2023/08/03 04:28:14;;;;;;;6.40;1.80;;;15.40;99.90;;;;;;6198999;23;20012;-77
2023/08/03 04:30:39;;;;;;;4.72;1.70;;;15.40;99.90;;;;;;6198710;23;20042;-77
2023/08/03 04:33:05;;;;;;;4.28;1.88;;;15.40;99.90;;;;;;6197331;23;20107;-77
2023/08/03 04:35:30;;;;;;;3.03;1.80;;;15.40;99.90;;;;;;6196921;23;20336;-78
2023/08/03 04:37:56;;;;;;;7.60;2.15;;;15.40;99.90;;;;;;6199766;23;20007;-77
2023/08/03 04:40:22;;;;;;;1.95;1.58;;;15.40;99.90;;;;;;6198849;23;20088;-77
2023/08/03 04:42:47;;;;;;;3.83;2.15;;;15.40;99.90;;;;;;6200677;23;20507;-78
2023/08/03 04:45:13;;;;;;;4.05;2.10;;;15.40;99.90;;;;;;6200067;23;20027;-77
2023/08/03 04:47:38;;;;;;;5.32;1.63;;;15.50;99.90;;;;;;6199565;23;20008;-77
2023/08/03 04:50:05;;;;;;;6.78;2.08;;;15.50;99.90;;;;;;6199009;23;20056;-77
2023/08/03 04:52:30;;;;;;;5.28;1.80;;;15.50;99.90;;;;;;6199900;23;20442;-77
2023/08/03 04:54:56;;;;;;;5.13;1.90;;;15.50;99.90;;;;;;6199941;23;20008;-77
2023/08/03 04:57:21;;;;;;;2.75;1.92;;;15.50;99.90;;;;;;6200776;23;20047;-77
2023/08/03 04:59:47;;;;;;;4.65;1.77;;;15.60;99.90;;;;;;6199549;23;20016;-77
2023/08/03 05:02:12;;;;;;;6.32;1.80;;;15.60;99.90;;;;;;6194337;23;20012;-78
2023/08/03 05:04:38;;;;;;;5.47;2.00;;;15.70;99.90;;;;;;6194486;23;20463;-78
2023/08/03 05:07:04;;;;;;;2.65;1.60;;;15.80;99.90;;;;;;6195343;23;20446;-78
2023/08/03 05:09:29;;;;;;;3.70;1.88;;;15.80;99.90;;;;;;6201345;23;20004;-77
2023/08/03 05:11:55;;;;;;;8.13;1.77;;;15.90;99.90;;;;;;6200062;23;20063;-77
2023/08/03 05:14:21;;;;;;;6.68;2.00;;;15.90;99.90;;;;;;6200626;23;20024;-77
2023/08/03 05:16:46;;;;;;;6.40;1.70;;;15.90;99.90;;;;;;6198448;23;20008;-77
2023/08/03 05:19:12;;;;;;;3.67;1.70;;;15.90;99.90;;;;;;6197888;23;20015;-77
2023/08/03 05:21:38;;;;;;;4.22;1.63;;;16.00;99.90;;;;;;6197849;23;20083;-77
2023/08/03 05:24:04;;;;;;;4.57;2.45;;;16.00;99.90;;;;;;6199043;23;20561;-77
2023/08/03 05:26:33;;;;;;;5.53;2.47;;;16.10;99.90;;;;;;6227775;23;20004;-77
2023/08/03 05:28:59;;;;;;;2.78;1.48;;;16.20;99.90;;;;;;6202903;23;20004;-77
2023/08/03 05:31:26;;;;;;;5.18;1.67;;;16.30;99.90;;;;;;6200791;23;20070;-76
2023/08/03 05:33:53;;;;;;;3.55;1.42;;;16.30;99.90;;;;;;6201730;23;20024;-77
2023/08/03 05:36:19;;;;;;;5.38;1.70;;;16.40;99.90;;;;;;6202182;23;20015;-77
2023/08/03 05:38:44;;;;;;;6.40;1.80;;;16.40;99.90;;;;;;6230076;23;20380;-77
2023/08/03 05:41:17;;;;;;;5.00;1.90;;;16.60;99.90;;;;;;6229326;23;20011;-77
2023/08/03 05:43:45;;;;;;;6.78;2.10;;;16.60;99.90;;;;;;6202551;23;20016;-77
2023/08/03 05:46:13;;;;;;;7.38;1.48;;;16.50;99.90;;;;;;6202470;23;20061;-78
2023/08/03 05:48:38;;;;;;;5.05;1.67;;;16.60;99.90;;;;;;6202894;23;20016;-77
2023/08/03 05:51:04;;;;;;;5.95;1.70;;;16.70;99.90;;;;;;6203933;23;20008;-78
2023/08/03 05:53:31;;;;;;;3.33;1.42;;;16.60;99.90;;;;;;6203055;23;20118;-78
2023/08/03 05:55:57;;;;;;;7.43;1.50;;;16.70;99.90;;;;;;6202936;23;20758;-78
2023/08/03 05:58:22;;;;;;;5.15;1.40;;;16.80;99.90;;;;;;6204461;23;20016;-78
2023/08/03 06:00:49;;;;;;;8.50;1.75;;;16.90;99.90;;;;;;6202932;23;20568;-79
2023/08/03 06:03:17;;;;;;;5.45;1.70;;;16.80;99.90;;;;;;6227831;23;20008;-78
2023/08/03 06:05:49;;;;;;;3.58;1.85;;;16.90;99.90;;;;;;6200438;23;20034;-79
2023/08/03 06:08:23;;;;;;;14.55;6.03;;;17.10;99.90;;;;;;6206378;23;20346;-79
2023/08/03 06:10:51;;;;;;;8.38;1.60;;;17.10;99.90;;;;;;6237637;23;20408;-79
2023/08/03 06:13:25;;;;;;;5.43;1.45;;;17.10;99.90;;;;;;6222736;23;20060;-79
2023/08/03 06:15:50;;;;;;;3.35;1.73;;;17.30;99.90;;;;;;6208480;23;20533;-79
2023/08/03 06:18:20;;;;;;;7.80;1.70;;;17.50;99.90;;;;;;6211502;23;20008;-80
2023/08/03 06:20:48;;;;;;;8.00;1.73;;;17.70;99.90;;;;;;6211857;23;20008;-79
2023/08/03 06:23:22;;;;;;;4.80;1.27;;;17.80;99.90;;;;;;6210671;23;20077;-79
2023/08/03 06:25:50;;;;;;;14.55;7.40;;;18.00;99.90;;;;;;6210528;23;20081;-79
2023/08/03 06:28:18;;;;;;;4.57;1.95;;;18.20;99.90;;;;;;6236961;23;20015;-80
2023/08/03 06:30:45;;;;;;;4.50;1.40;;;18.00;99.90;;;;;;6209186;23;20000;-81
2023/08/03 06:33:13;;;;;;;3.47;1.30;;;17.80;99.90;;;;;;6233891;23;20018;-78
2023/08/03 06:35:40;;;;;;;3.80;1.20;;;17.90;99.90;;;;;;6207868;23;20103;-78
2023/08/03 06:38:09;;;;;;;12.00;3.92;;;17.90;99.90;;;;;;6205076;23;20826;-79
2023/08/03 06:40:35;;;;;;;7.43;2.35;;;17.90;99.90;;;;;;6205944;23;20712;-78
2023/08/03 06:43:02;;;;;;;19.98;11.27;;;18.00;99.90;;;;;;6204062;23;20004;-78
2023/08/03 06:45:31;;;;;;;6.20;1.92;;;18.00;99.90;;;;;;6207449;23;20805;-78
2023/08/03 06:48:01;;;;;;;4.00;1.20;;;18.00;99.90;;;;;;6202975;23;20771;-79
2023/08/03 06:50:29;;;;;;;3.35;1.30;;;18.20;99.90;;;;;;6233060;23;20008;-79
2023/08/03 06:52:56;;;;;;;2.50;1.15;;;18.20;99.90;;;;;;6206765;23;20027;-78
2023/08/03 06:55:21;;;;;;;5.60;1.35;;;18.50;99.90;;;;;;6205904;23;20011;-79
2023/08/03 06:57:47;;;;;;;20.85;11.07;;;18.80;99.90;;;;;;6205754;23;20077;-78
2023/08/03 07:00:13;;;;;;;3.03;1.25;;;19.00;99.90;;;;;;6204443;23;20039;-79
2023/08/03 07:02:39;;;;;;;7.30;1.40;;;19.20;99.90;;;;;;6205064;23;20000;-78
2023/08/03 07:05:05;;;;;;;5.05;1.17;;;19.10;99.90;;;;;;6202728;23;20060;-78
2023/08/03 07:07:31;;;;;;;5.75;1.40;;;19.00;99.90;;;;;;6201616;23;20546;-78
2023/08/03 07:09:59;;;;;;;4.80;1.17;;;19.20;99.90;;;;;;6201531;23;20015;-78
2023/08/03 07:12:25;;;;;;;10.18;1.63;;;19.20;99.90;;;;;;6202298;23;20018;-79
2023/08/03 07:14:50;;;;;;;6.32;1.38;;;19.20;99.90;;;;;;6200613;23;20090;-79
2023/08/03 07:17:16;;;;;;;4.75;1.13;;;19.40;99.90;;;;;;6199820;23;20008;-77
2023/08/03 07:19:42;;;;;;;5.00;1.50;;;19.40;99.90;;;;;;6227977;23;20008;-78
2023/08/03 07:22:08;;;;;;;8.77;1.23;;;19.40;99.90;;;;;;6227334;23;20103;-78
2023/08/03 07:24:35;;;;;;;4.03;1.30;;;19.80;99.90;;;;;;6199092;23;20035;-79
2023/08/03 07:27:01;;;;;;;3.75;1.00;;;20.60;99.90;;;;;;6199791;23;20027;-78
2023/08/03 07:29:28;;;;;;;3.25;1.10;;;20.70;99.90;;;;;;6230203;23;20079;-77
2023/08/03 07:31:54;;;;;;;5.90;1.27;;;21.30;99.90;;;;;;6228297;23;20012;-78
2023/08/03 07:34:19;;;;;;;5.18;1.05;;;21.70;99.90;;;;;;6202363;23;20107;-77
2023/08/03 07:36:46;;;;;;;5.43;1.17;;;21.30;99.90;;;;;;6202060;23;20011;-77
2023/08/03 07:39:12;;;;;;;12.40;1.60;;;21.50;99.90;;;;;;6201351;23;20107;-78
2023/08/03 07:41:37;;;;;;;3.47;1.20;;;21.50;99.90;;;;;;6202745;23;20050;-78
2023/08/03 07:44:03;;;;;;;5.07;1.35;;;22.00;99.90;;;;;;6201716;23;20065;-78
2023/08/03 07:46:30;;;;;;;5.75;1.10;;;22.20;99.90;;;;;;6228301;23;20058;-78
2023/08/03 07:48:56;;;;;;;7.90;1.25;;;22.40;99.90;;;;;;6199955;23;20012;-77
2023/08/03 07:51:22;;;;;;;3.97;1.20;;;23.10;99.90;;;;;;6198098;23;20008;-77
2023/08/03 07:53:48;;;;;;;3.42;1.02;;;23.70;99.90;;;;;;6224640;23;20023;-78
2023/08/03 07:56:18;;;;;;;5.95;1.40;;;24.30;99.90;;;;;;6197271;23;20030;-77
2023/08/03 07:58:45;;;;;;;4.80;1.30;;;24.70;99.90;;;;;;6200549;23;20011;-78
2023/08/03 08:01:11;;;;;;;5.70;1.30;;;25.00;99.90;;;;;;6199508;23;20308;-78
2023/08/03 08:03:38;;;;;;;5.22;1.00;;;25.10;99.90;;;;;;6196826;23;20019;-78
2023/08/03 08:06:15;;;;;;;5.28;1.40;;;25.10;99.90;;;;;;6198209;23;20008;-78
2023/08/03 08:08:41;;;;;;;4.88;0.90;;;24.90;99.90;;;;;;6194564;23;20491;-78
2023/08/03 08:11:07;;;;;;;4.55;0.90;;;25.00;99.90;;;;;;6195072;23;20316;-78
2023/08/03 08:13:33;;;;;;;5.47;0.70;;;26.00;99.90;;;;;;6191488;23;20024;-78
2023/08/03 08:16:01;;;;;;;5.45;1.00;;;27.10;99.90;;;;;;6198496;23;20008;-78
2023/08/03 08:18:28;;;;;;;4.32;0.93;;;27.60;99.90;;;;;;6198223;23;20117;-78
2023/08/03 08:21:02;;;;;;;3.60;1.25;;;27.60;97.30;;;;;;6224296;23;20454;-78
2023/08/03 08:23:27;;;;;;;4.18;1.10;;;26.60;98.80;;;;;;6193846;23;20010;-78
2023/08/03 08:25:53;;;;;;;2.80;1.10;;;26.20;99.90;;;;;;6198581;23;20638;-78
2023/08/03 08:28:20;;;;;;;4.07;1.35;;;26.30;99.90;;;;;;6196291;23;20102;-78
2023/08/03 08:30:45;;;;;;;6.03;1.38;;;26.20;99.90;;;;;;6197595;23;20015;-78
2023/08/03 08:33:13;;;;;;;5.70;2.10;;;27.70;99.90;;;;;;6199312;23;20016;-78
2023/08/03 08:35:39;;;;;;;5.28;1.63;;;30.60;97.50;;;;;;6199797;23;20075;-79
2023/08/03 08:38:05;;;;;;;5.88;0.98;;;33.70;74.70;;;;;;6200061;23;20125;-80
2023/08/03 08:40:35;;;;;;;3.17;0.82;;;36.10;61.50;;;;;;6228240;23;20062;-79
2023/08/03 08:43:01;;;;;;;3.77;0.87;;;36.50;54.20;;;;;;6230405;23;20178;-79
2023/08/03 08:45:26;;;;;;;3.55;0.88;;;35.90;52.20;;;;;;6227519;23;20001;-79
2023/08/03 08:47:52;;;;;;;2.75;0.73;;;37.30;49.10;;;;;;6201063;23;20019;-78
2023/08/03 08:50:18;;;;;;;3.83;0.77;;;37.70;48.50;;;;;;6201313;23;20032;-80
2023/08/03 08:52:44;;;;;;;3.30;0.80;;;38.10;46.40;;;;;;6226570;23;20082;-79
2023/08/03 08:55:15;;;;;;;3.05;0.70;;;38.40;45.50;;;;;;6198986;23;20446;-79
2023/08/03 08:57:40;;;;;;;2.13;0.65;;;39.40;45.90;;;;;;6199737;23;20004;-79
2023/08/03 09:00:07;;;;;;;2.80;0.80;;;39.60;42.90;;;;;;6202682;23;20015;-76
2023/08/03 09:02:33;;;;;;;2.80;0.70;;;40.00;42.40;;;;;;6196819;23;20101;-78
2023/08/03 09:05:26;;;;;;;3.08;0.77;;;40.00;40.70;;;;;;6225968;23;20165;-78
2023/08/03 09:08:03;;;;;;;2.28;0.70;;;38.70;42.60;;;;;;6221842;23;20023;-79
2023/08/03 09:10:30;;;;;;;4.85;0.90;;;38.40;43.30;;;;;;6223099;23;20004;-79
2023/08/03 09:12:57;;;;;;;4.30;0.85;;;38.00;42.80;;;;;;6193140;23;20019;-79
2023/08/03 09:15:40;;;;;;;4.07;0.80;;;36.90;44.90;;;;;;6194234;23;20008;-79
2023/08/03 09:18:07;;;;;;;3.25;0.90;;;35.30;45.40;;;;;;6218628;23;20067;-79
2023/08/03 09:20:33;;;;;;;6.20;1.00;;;33.70;47.60;;;;;;6224606;23;20005;-78
2023/08/03 09:23:01;;;;;;;2.17;0.80;;;32.40;50.00;;;;;;6220108;23;20008;-79
2023/08/03 09:25:27;;;;;;;5.72;1.30;;;32.30;54.00;;;;;;6193855;23;20004;-79
2023/08/03 09:27:54;;;;;;;2.13;0.85;;;33.10;47.10;;;;;;6195825;23;20024;-79
2023/08/03 09:30:21;;;;;;;2.92;0.80;;;35.30;48.20;;;;;;6192890;23;20468;-79
2023/08/03 09:32:47;;;;;;;6.10;1.30;;;37.60;44.40;;;;;;6197342;23;20011;-77
2023/08/03 09:35:24;;;;;;;2.85;0.95;;;39.80;40.80;;;;;;6222898;23;20004;-76
2023/08/03 09:37:52;;;;;;;3.42;1.00;;;41.70;37.50;;;;;;6228364;23;20004;-77
2023/08/03 09:40:19;;;;;;;2.60;0.80;;;41.90;37.90;;;;;;6200295;23;20091;-78
2023/08/03 09:42:47;;;;;;;2.92;0.52;;;42.30;39.10;;;;;;6229737;23;20014;-77
2023/08/03 09:45:13;;;;;;;3.13;0.85;;;42.90;38.20;;;;;;6203896;23;20540;-78
2023/08/03 09:47:39;;;;;;;3.45;0.73;;;42.60;36.10;;;;;;6229890;23;20091;-77
2023/08/03 09:50:06;;;;;;;3.47;1.20;;;42.60;36.70;;;;;;6230298;23;20008;-78
2023/08/03 09:52:35;;;;;;;2.25;0.80;;;42.50;34.70;;;;;;6203260;23;20019;-79
2023/08/03 09:55:08;;;;;;;4.00;0.82;;;42.30;36.50;;;;;;6202845;23;20020;-77
2023/08/03 09:57:41;;;;;;;4.43;1.05;;;42.80;37.30;;;;;;6229006;23;20011;-77
2023/08/03 10:00:10;;;;;;;2.55;0.70;;;43.50;33.70;;;;;;6228700;23;20008;-78
2023/08/03 10:03:09;;;;;;;4.22;0.85;;;43.50;35.80;;;;;;6200215;23;20010;-77
2023/08/03 10:06:04;;;;;;;1.85;0.70;;;44.40;35.00;;;;;;6196490;23;20389;-78
2023/08/03 10:08:35;;;;;;;1.65;0.50;;;43.30;33.10;;;;;;6192898;23;20715;-78
2023/08/03 10:11:03;;;;;;;1.15;0.50;;;41.20;36.90;;;;;;6195840;23;20012;-76
2023/08/03 10:13:33;;;;;;;3.03;0.80;;;41.20;35.70;;;;;;6224953;23;20012;-78
2023/08/03 10:16:02;;;;;;;2.47;0.80;;;42.00;37.00;;;;;;6201819;23;20086;-77
2023/08/03 10:18:30;;;;;;;2.67;0.80;;;42.90;36.40;;;;;;6201118;23;20111;-78
2023/08/03 10:20:57;;;;;;;3.42;0.70;;;43.60;36.20;;;;;;6231882;23;20504;-78
2023/08/03 10:23:22;;;;;;;3.05;1.10;;;42.30;34.30;;;;;;6229744;23;20610;-78
2023/08/03 10:26:08;;;;;;;2.80;0.70;;;40.50;36.10;;;;;;6226405;23;20000;-78
2023/08/03 10:28:40;;;;;;;3.55;0.80;;;39.10;36.80;;;;;;6228700;23;20023;-77
2023/08/03 10:31:14;;;;;;;2.50;1.00;;;36.90;36.20;;;;;;6200967;23;20461;-77
2023/08/03 10:33:46;;;;;;;3.42;1.00;;;35.10;39.90;;;;;;6201246;23;20016;-77
2023/08/03 10:36:41;;;;;;;2.20;0.80;;;34.20;42.60;;;;;;6200339;23;20448;-78
2023/08/03 10:39:09;;;;;;;2.67;0.93;;;33.00;45.20;;;;;;6216636;23;20008;-77
2023/08/03 10:42:15;;;;;;;1.33;0.63;;;33.10;42.80;;;;;;6199491;23;20380;-78
2023/08/03 10:44:40;;;;;;;1.77;0.55;;;33.60;43.70;;;;;;6197459;23;20012;-78
2023/08/03 10:47:27;;;;;;;2.15;0.80;;;33.10;40.80;;;;;;6200749;23;20033;-77
2023/08/03 10:49:55;;;;;;;3.25;0.90;;;32.80;41.10;;;;;;6200310;23;20079;-77
2023/08/03 10:52:24;;;;;;;1.90;0.80;;;31.80;44.40;;;;;;6230965;23;20008;-78
2023/08/03 10:54:50;;;;;;;3.70;0.60;;;32.10;45.10;;;;;;6231291;23;20057;-78
2023/08/03 10:57:26;;;;;;;5.32;0.90;;;32.80;43.20;;;;;;6230434;23;20044;-77
2023/08/03 11:00:03;;;;;;;2.30;0.77;;;34.00;44.10;;;;;;6230167;23;20015;-77
2023/08/03 11:02:33;;;;;;;2.72;0.80;;;35.90;39.30;;;;;;6230696;23;20468;-77
2023/08/03 11:05:02;;;;;;;2.17;0.55;;;37.30;39.20;;;;;;6229521;22;20020;-77
2023/08/03 11:07:33;;;;;;;1.63;0.70;;;39.00;36.40;;;;;;6202760;23;20004;-78
2023/08/03 11:10:05;;;;;;;1.02;0.45;;;39.60;38.60;;;;;;6231380;23;20008;-78
2023/08/03 11:12:31;;;;;;;3.03;0.50;;;40.00;35.10;;;;;;6231152;23;20040;-79
2023/08/03 11:14:57;;;;;;;3.08;0.75;;;39.70;33.90;;;;;;6203180;23;20106;-78
2023/08/03 11:17:29;;;;;;;3.22;0.65;;;37.60;33.10;;;;;;6202582;23;20020;-78
2023/08/03 11:19:56;;;;;;;3.33;0.88;;;34.70;41.80;;;;;;6204116;23;20016;-77
2023/08/03 11:22:23;;;;;;;3.85;0.80;;;32.20;42.60;;;;;;6202672;23;20066;-77
2023/08/03 11:24:51;;;;;;;4.22;0.70;;;31.60;45.30;;;;;;6227570;23;20004;-78
2023/08/03 11:27:18;;;;;;;2.28;0.60;;;33.00;45.60;;;;;;6204540;23;20447;-78
2023/08/03 11:29:44;;;;;;;2.10;0.73;;;34.60;44.10;;;;;;6203731;23;20363;-78
2023/08/03 11:32:11;;;;;;;3.10;0.98;;;33.50;42.00;;;;;;6227995;23;20008;-77
2023/08/03 11:34:39;;;;;;;2.85;0.73;;;31.50;43.10;;;;;;6230989;23;20517;-77
2023/08/03 11:37:05;;;;;;;2.45;0.70;;;29.40;46.20;;;;;;6205042;23;20008;-78
2023/08/03 11:39:30;;;;;;;4.15;0.80;;;28.30;51.00;;;;;;6203719;23;20011;-78
2023/08/03 11:41:57;;;;;;;1.70;0.80;;;27.60;51.40;;;;;;6230117;23;20339;-77
2023/08/03 11:44:24;;;;;;;2.60;0.90;;;26.70;52.80;;;;;;6229766;23;20066;-77
2023/08/03 11:47:05;;;;;;;4.53;0.90;;;26.30;55.20;;;;;;6229594;23;20546;-77
2023/08/03 11:49:31;;;;;;;1.77;0.90;;;25.60;57.10;;;;;;6203473;23;20397;-78
2023/08/03 11:51:59;;;;;;;2.85;0.90;;;25.40;71.70;;;;;;6205667;23;20015;-77
2023/08/03 11:54:27;;;;;;;4.72;1.10;;;24.40;61.40;;;;;;6200902;23;20085;-78
2023/08/03 11:56:53;;;;;;;3.50;0.80;;;24.60;90.10;;;;;;6232328;23;20874;-77
2023/08/03 11:59:22;;;;;;;4.40;0.95;;;24.90;91.40;;;;;;6230274;23;20107;-78
2023/08/03 12:01:49;;;;;;;2.53;0.75;;;25.10;92.20;;;;;;6201925;23;20083;-77
2023/08/03 12:04:16;;;;;;;1.65;0.85;;;25.30;91.40;;;;;;6227753;23;20391;-77
2023/08/03 12:06:52;;;;;;;3.30;0.93;;;25.50;83.40;;;;;;6194410;23;20511;-77
2023/08/03 12:09:25;;;;;;;1.52;0.70;;;26.60;92.20;;;;;;6226556;23;20008;-77
2023/08/03 12:11:50;;;;;;;1.65;0.75;;;27.40;78.40;;;;;;6228461;23;20035;-77
2023/08/03 12:14:17;;;;;;;2.22;0.70;;;27.60;76.30;;;;;;6197969;23;20642;-77
2023/08/03 12:16:43;;;;;;;3.28;0.80;;;26.90;73.10;;;;;;6229354;23;20111;-77
2023/08/03 12:19:09;;;;;;;2.83;0.80;;;26.40;73.90;;;;;;6225324;23;20085;-77
2023/08/03 12:21:38;;;;;;;2.08;1.10;;;25.70;75.20;;;;;;6228960;23;20340;-77
2023/08/03 12:24:07;;;;;;;1.65;0.73;;;25.00;85.50;;;;;;6223243;23;20008;-77
2023/08/03 12:26:33;;;;;;;2.28;0.80;;;24.30;82.60;;;;;;6228391;23;20004;-76
2023/08/03 12:29:01;;;;;;;3.05;0.80;;;23.90;90.50;;;;;;6200921;23;20011;-77
2023/08/03 12:31:28;;;;;;;3.28;0.80;;;23.80;89.80;;;;;;6231902;23;20019;-76
2023/08/03 12:33:53;;;;;;;2.45;0.80;;;24.10;92.60;;;;;;6228892;23;20063;-77
2023/08/03 12:36:19;;;;;;;1.50;0.70;;;24.30;92.20;;;;;;6229070;23;20333;-77
2023/08/03 12:38:44;;;;;;;2.65;0.75;;;25.00;91.00;;;;;;6226691;23;20032;-78
2023/08/03 12:41:10;;;;;;;1.75;1.10;;;25.80;89.20;;;;;;6221232;23;20000;-78
2023/08/03 12:43:36;;;;;;;4.13;1.50;;;26.60;75.60;;;;;;6195106;23;20088;-77
2023/08/03 12:46:01;;;;;;;2.53;1.50;;;26.70;73.90;;;;;;6224041;23;20500;-77